.
WxDataArchive / Data Records for 2014-09-21
2014-09-20 September 2014 2014-09-22

Data Records for Sunday, 21 September 2014

Time	Temp	Chill	HIndex	Humid	Dewpt	 Wind 	HiWind	WindDir	Rain 	Barom
-----	----	-----	------	-----	-----	------	------	-------	-----	-----
00:00	65.2	65.2	65.2	96	64.0	0	1	248	0.04	29.784 
00:05	65.3	65.3	65.3	96	64.1	0	2	248	0.00	29.784 
00:10	65.3	65.3	65.3	96	64.1	0	2	248	0.01	29.784 
00:15	65.5	65.5	65.5	96	64.3	0	2	248	0.00	29.795 
00:20	65.5	65.5	65.5	96	64.3	0	1	248	0.00	29.795 
00:25	65.5	65.5	65.5	96	64.3	0	1	248	0.00	29.795 
00:30	65.6	65.6	65.6	96	64.4	0	1	248	0.00	29.785 
00:35	65.6	65.6	65.6	96	64.4	0	1	248	0.00	29.785 
00:40	65.6	65.6	65.6	96	64.4	0	1	248	0.00	29.785 
00:45	65.6	65.6	65.6	96	64.4	0	1	248	0.00	29.777 
00:50	65.8	65.8	65.8	96	64.6	0	1	248	0.01	29.777 
00:55	66.0	66.0	66.0	96	64.8	0	1	248	0.00	29.777 
01:00	66.0	66.0	66.0	96	64.8	0	1	248	0.01	29.767 
01:05	66.0	66.0	66.0	96	64.8	0	2	248	0.03	29.767 
01:10	66.1	66.1	66.1	96	64.9	0	1	248	0.00	29.767 
01:15	66.3	66.3	66.3	96	65.1	0	2	248	0.00	29.752 
01:20	66.3	66.3	66.3	96	65.1	0	0	---	0.00	29.752 
01:25	66.3	66.3	66.3	96	65.1	0	0	---	0.00	29.752 
01:30	66.3	66.3	66.3	96	65.1	0	1	248	0.00	29.748 
01:35	66.3	66.3	66.3	96	65.1	0	0	---	0.00	29.748 
01:40	66.3	66.3	66.3	96	65.1	0	0	---	0.01	29.748 
01:45	66.3	66.3	66.3	96	65.1	0	0	---	0.01	29.742 
01:50	66.3	66.3	66.3	96	65.1	0	0	---	0.00	29.742 
01:55	66.3	66.3	66.3	96	65.1	0	1	248	0.00	29.742 
02:00	66.3	66.3	66.3	96	65.1	0	1	248	0.00	29.733 
02:05	66.3	66.3	66.3	96	65.1	0	0	---	0.00	29.733 
02:10	66.3	66.3	66.3	96	65.1	0	1	248	0.00	29.733 
02:15	66.3	66.3	66.3	96	65.1	0	1	248	0.00	29.726 
02:20	66.3	66.3	66.3	96	65.1	0	0	---	0.00	29.726 
02:25	66.1	66.1	66.1	96	64.9	0	1	248	0.00	29.726 
02:30	66.1	66.1	66.1	96	64.9	0	1	248	0.00	29.714 
02:35	66.1	66.1	66.1	96	64.9	0	0	---	0.00	29.714 
02:40	66.0	66.0	66.0	96	64.8	0	1	248	0.00	29.714 
02:45	66.0	66.0	66.0	96	64.8	0	1	248	0.00	29.699 
02:50	66.0	66.0	66.0	96	64.8	0	0	---	0.00	29.699 
02:55	66.0	66.0	66.0	96	64.8	0	1	248	0.00	29.699 
03:00	66.1	66.1	66.1	96	64.9	0	1	248	0.00	29.696 
03:05	66.3	66.3	66.3	96	65.1	0	1	248	0.00	29.696 
03:10	66.4	66.4	66.4	96	65.2	0	1	248	0.00	29.696 
03:15	66.4	66.4	66.4	96	65.2	0	2	248	0.00	29.684 
03:20	66.6	66.6	66.6	96	65.4	0	1	248	0.00	29.684 
03:25	66.8	66.8	66.8	96	65.6	0	2	248	0.00	29.684 
03:30	66.8	66.8	66.8	96	65.6	0	3	248	0.00	29.681 
03:35	66.9	66.9	66.9	96	65.7	0	1	22	0.00	29.681 
03:40	67.1	67.1	67.1	96	65.9	1	4	270	0.00	29.681 
03:45	67.1	67.1	67.1	96	65.9	0	2	270	0.00	29.675 
03:50	67.1	67.1	67.1	96	65.9	0	2	270	0.00	29.675 
03:55	67.3	67.3	67.3	96	66.1	1	3	270	0.00	29.675 
04:00	67.3	67.3	67.3	96	66.1	1	3	270	0.00	29.678 
04:05	67.4	67.4	67.4	96	66.2	1	3	270	0.00	29.678 
04:10	67.4	67.4	67.4	96	66.2	0	3	292	0.00	29.678 
04:15	67.4	67.4	67.4	96	66.2	0	4	292	0.00	29.672 
04:20	67.4	67.4	67.4	96	66.2	0	1	292	0.00	29.672 
04:25	67.4	67.4	67.4	96	66.2	0	4	292	0.00	29.672 
04:30	67.6	67.6	67.6	96	66.4	0	3	292	0.00	29.665 
04:35	67.6	67.6	67.6	96	66.4	0	1	292	0.00	29.665 
04:40	67.6	67.6	67.6	96	66.4	0	4	292	0.00	29.665 
04:45	67.8	67.8	67.8	96	66.6	0	3	292	0.00	29.666 
04:50	67.8	67.8	67.8	96	66.6	0	3	22	0.00	29.666 
04:55	67.8	67.8	67.8	96	66.6	1	4	292	0.00	29.666 
05:00	67.9	67.9	67.9	96	66.7	1	4	270	0.00	29.665 
05:05	67.9	67.9	67.9	96	66.7	0	2	270	0.00	29.665 
05:10	67.9	67.9	67.9	96	66.7	0	1	270	0.00	29.665 
05:15	67.9	67.9	67.9	96	66.7	0	3	270	0.00	29.656 
05:20	67.9	67.9	67.9	96	66.7	0	3	270	0.00	29.656 
05:25	67.9	67.9	67.9	96	66.7	0	3	270	0.00	29.656 
05:30	67.9	67.9	67.9	96	66.7	0	2	270	0.00	29.651 
05:35	68.1	68.1	68.1	96	66.9	1	3	270	0.00	29.651 
05:40	68.1	68.1	68.1	96	66.9	1	3	270	0.00	29.651 
05:45	68.1	68.1	68.1	96	66.9	1	4	270	0.00	29.656 
05:50	67.9	67.9	67.9	96	66.7	1	3	270	0.00	29.656 
05:55	67.8	67.8	67.8	96	66.6	1	4	270	0.00	29.656 
06:00	67.6	67.6	67.6	96	66.4	1	4	270	0.00	29.660 
06:05	67.6	67.6	67.6	96	66.4	1	4	270	0.00	29.660 
06:10	67.4	67.4	67.4	96	66.2	1	4	270	0.00	29.660 
06:15	67.3	67.3	67.3	96	66.1	1	3	270	0.00	29.672 
06:20	67.1	67.1	67.1	95	65.6	1	4	270	0.00	29.672 
06:25	66.9	66.9	66.9	95	65.4	1	4	270	0.00	29.672 
06:30	66.8	66.8	66.8	95	65.3	2	5	270	0.00	29.676 
06:35	66.6	66.6	66.6	95	65.1	3	7	270	0.00	29.676 
06:40	66.8	66.8	66.8	94	65.0	3	11	270	0.00	29.676 
06:45	66.8	66.8	66.8	92	64.4	3	5	270	0.00	29.681 
06:50	66.4	66.4	66.4	90	63.4	4	7	315	0.00	29.681 
06:55	65.8	65.8	65.8	87	61.8	3	9	270	0.00	29.681 
07:00	65.5	65.5	65.5	85	60.9	4	9	292	0.00	29.693 
07:05	65.2	65.2	65.2	84	60.2	4	7	270	0.00	29.693 
07:10	65.0	65.0	65.0	84	60.0	3	7	270	0.00	29.693 
07:15	64.8	64.8	64.8	84	59.8	3	5	270	0.00	29.701 
07:20	64.7	64.7	64.7	84	59.7	2	6	270	0.00	29.701 
07:25	64.5	64.5	64.5	83	59.2	4	9	270	0.00	29.701 
07:30	64.5	64.5	64.5	83	59.2	2	5	270	0.00	29.710 
07:35	64.2	64.2	64.2	84	59.3	2	6	270	0.00	29.710 
07:40	64.0	64.0	64.0	84	59.1	3	6	270	0.00	29.710 
07:45	63.9	63.9	63.9	84	59.0	2	5	270	0.00	29.721 
07:50	63.7	63.7	63.7	84	58.8	2	5	270	0.00	29.721 
07:55	63.5	63.5	63.5	84	58.6	1	4	270	0.00	29.721 
08:00	63.5	63.5	63.5	84	58.6	2	4	270	0.00	29.724 
08:05	63.5	63.5	63.5	84	58.6	2	5	270	0.00	29.724 
08:10	63.5	63.5	63.5	82	57.9	3	8	292	0.00	29.724 
08:15	63.5	63.5	63.5	82	57.9	3	7	292	0.00	29.727 
08:20	63.5	63.5	63.5	81	57.6	3	6	270	0.00	29.727 
08:25	63.5	63.5	63.5	81	57.6	3	9	270	0.00	29.727 
08:30	63.5	63.5	63.5	81	57.6	3	7	270	0.00	29.729 
08:35	63.5	63.5	63.5	81	57.6	2	6	315	0.00	29.729 
08:40	63.5	63.5	63.5	81	57.6	2	5	270	0.00	29.729 
08:45	63.5	63.5	63.5	82	57.9	2	5	292	0.00	29.742 
08:50	63.4	63.4	63.4	82	57.8	1	3	270	0.00	29.742 
08:55	63.4	63.4	63.4	83	58.1	2	6	270	0.00	29.742 
09:00	63.1	63.1	63.1	82	57.5	2	5	270	0.00	29.747 
09:05	62.9	62.9	62.9	81	57.0	3	6	270	0.00	29.747 
09:10	63.1	63.1	63.1	80	56.8	2	6	270	0.00	29.747 
09:15	63.1	63.1	63.1	78	56.1	3	6	270	0.00	29.753 
09:20	63.1	63.1	63.1	77	55.8	3	9	270	0.00	29.753 
09:25	63.1	63.1	63.1	77	55.8	2	7	270	0.00	29.753 
09:30	62.9	62.9	62.9	75	54.8	2	7	270	0.00	29.751 
09:35	62.9	62.9	62.9	74	54.5	3	5	270	0.00	29.751 
09:40	62.9	62.9	62.9	74	54.5	3	9	270	0.00	29.751 
09:45	62.9	62.9	62.9	73	54.1	2	8	270	0.00	29.753 
09:50	63.2	63.2	63.2	71	53.6	4	9	270	0.00	29.753 
09:55	63.4	63.4	63.4	71	53.8	4	8	270	0.00	29.753 
10:00	63.5	63.5	63.5	72	54.3	4	7	270	0.00	29.755 
10:05	63.4	63.4	63.4	74	55.0	3	7	270	0.00	29.755 
10:10	63.5	63.5	63.5	74	55.1	2	5	292	0.00	29.755 
10:15	63.7	63.7	63.7	72	54.5	2	6	270	0.00	29.752 
10:20	63.5	63.5	63.5	71	53.9	4	6	270	0.00	29.752 
10:25	63.9	63.9	63.9	71	54.3	2	7	292	0.00	29.752 
10:30	64.2	64.2	64.2	71	54.6	2	6	270	0.00	29.752 
10:35	64.2	64.2	64.2	68	53.4	3	7	270	0.00	29.752 
10:40	64.3	64.3	64.3	69	53.9	3	7	270	0.00	29.752 
10:45	64.5	64.5	64.5	67	53.3	3	7	270	0.00	29.747 
10:50	64.5	64.5	64.5	66	52.9	3	7	270	0.00	29.747 
10:55	64.7	64.7	64.7	66	53.1	3	7	270	0.00	29.747 
11:00	64.7	64.7	64.7	66	53.1	2	9	270	0.00	29.745 
11:05	65.0	65.0	65.0	65	52.9	2	5	270	0.00	29.745 
11:10	65.5	65.5	65.5	65	53.4	2	7	270	0.00	29.745 
11:15	65.5	65.5	65.5	63	52.6	3	7	270	0.00	29.745 
11:20	65.8	65.8	65.8	62	52.4	2	7	292	0.00	29.745 
11:25	66.0	66.0	66.0	61	52.2	3	7	270	0.00	29.745 
11:30	66.1	66.1	66.1	60	51.8	3	7	270	0.00	29.746 
11:35	66.4	66.4	66.4	60	52.1	2	5	270	0.00	29.746 
11:40	66.4	66.4	66.4	58	51.2	3	9	270	0.00	29.746 
11:45	66.1	66.1	66.1	61	52.3	2	6	270	0.00	29.751 
11:50	66.0	66.0	66.0	59	51.3	3	7	270	0.00	29.751 
11:55	65.8	65.8	65.8	59	51.1	4	10	292	0.00	29.751 
12:00	65.0	65.0	65.0	60	50.8	5	10	292	0.00	29.759 
12:05	64.8	64.8	64.8	60	50.6	4	9	270	0.00	29.759 
12:10	65.0	65.0	65.0	60	50.8	4	7	270	0.00	29.759 
12:15	65.3	65.3	65.3	59	50.6	5	10	292	0.00	29.760 
12:20	65.8	65.8	65.8	57	50.1	4	11	270	0.00	29.760 
12:25	65.8	65.8	65.8	56	49.7	5	10	270	0.00	29.760 
12:30	65.6	65.6	65.6	59	50.9	3	7	270	0.00	29.759 
12:35	65.5	65.5	65.5	58	50.3	4	7	270	0.00	29.759 
12:40	65.3	65.3	65.3	59	50.6	5	11	270	0.00	29.759 
12:45	65.6	65.6	65.6	58	50.4	3	7	270	0.00	29.759 
12:50	65.5	65.5	65.5	58	50.3	4	10	292	0.00	29.759 
12:55	65.2	65.2	65.2	58	50.0	4	11	292	0.00	29.759 
13:00	65.2	65.2	65.2	58	50.0	4	12	270	0.00	29.774 
13:05	64.7	64.7	64.7	59	50.0	4	9	270	0.00	29.774 
13:10	64.2	64.2	64.2	60	50.0	4	7	270	0.00	29.774 
13:15	63.7	63.7	63.7	60	49.5	4	10	270	0.00	29.783 
13:20	63.2	63.2	63.2	61	49.5	5	10	270	0.00	29.783 
13:25	62.7	62.7	62.7	61	49.1	5	10	270	0.00	29.783 
13:30	62.4	62.4	62.4	62	49.2	4	8	270	0.00	29.791 
13:35	62.6	62.6	62.6	64	50.2	3	7	270	0.00	29.791 
13:40	63.1	63.1	63.1	64	50.7	2	5	292	0.00	29.791 
13:45	63.2	63.2	63.2	64	50.8	3	7	270	0.00	29.785 
13:50	63.9	63.9	63.9	62	50.6	2	5	270	0.00	29.785 
13:55	64.5	64.5	64.5	61	50.7	2	6	270	0.00	29.785 
14:00	65.2	65.2	65.2	61	51.4	3	7	270	0.00	29.786 
14:05	65.0	65.0	65.0	58	49.9	4	8	270	0.00	29.786 
14:10	64.3	64.3	64.3	58	49.2	5	10	270	0.00	29.786 
14:15	63.5	63.5	63.5	59	48.9	5	11	270	0.00	29.792 
14:20	62.9	62.9	62.9	62	49.7	6	12	292	0.00	29.792 
14:25	62.6	62.6	62.6	64	50.2	5	10	270	0.00	29.792 
14:30	63.2	63.2	63.2	65	51.2	2	6	270	0.00	29.795 
14:35	63.4	63.4	63.4	64	51.0	3	7	270	0.00	29.795 
14:40	63.2	63.2	63.2	63	50.4	4	9	270	0.00	29.795 
14:45	63.4	63.4	63.4	65	51.4	4	7	270	0.00	29.798 
14:50	63.9	63.9	63.9	65	51.9	3	9	270	0.00	29.798 
14:55	64.2	64.2	64.2	64	51.8	5	11	270	0.00	29.798 
15:00	63.9	63.9	63.9	64	51.5	5	13	270	0.00	29.805 
15:05	63.7	63.7	63.7	67	52.5	4	13	270	0.00	29.805 
15:10	63.5	63.5	63.5	65	51.5	5	10	270	0.00	29.805 
15:15	63.4	63.4	63.4	64	51.0	5	12	270	0.00	29.806 
15:20	62.9	62.9	62.9	64	50.5	5	11	270	0.00	29.806 
15:25	62.6	62.6	62.6	66	51.1	4	10	270	0.00	29.806 
15:30	62.6	62.6	62.6	65	50.7	4	9	270	0.00	29.808 
15:35	62.4	62.4	62.4	66	50.9	3	7	270	0.00	29.808 
15:40	61.5	61.5	61.5	72	52.4	6	11	270	0.00	29.808 
15:45	60.5	60.5	60.5	78	53.6	4	10	292	0.00	29.823 
15:50	60.5	60.5	60.5	79	54.0	3	7	270	0.00	29.823 
15:55	61.0	61.0	61.0	76	53.4	3	10	270	0.00	29.823 
16:00	61.3	61.3	61.3	76	53.7	5	9	270	0.00	29.823 
16:05	62.0	62.0	62.0	75	54.0	5	11	270	0.00	29.823 
16:10	62.1	62.1	62.1	74	53.7	4	10	315	0.00	29.823 
16:15	62.3	62.3	62.3	73	53.5	5	11	270	0.00	29.823 
16:20	62.1	62.1	62.1	71	52.6	6	10	270	0.00	29.823 
16:25	62.3	62.3	62.3	71	52.8	5	10	270	0.00	29.823 
16:30	62.7	62.7	62.7	72	53.5	3	9	292	0.00	29.823 
16:35	62.6	62.6	62.6	71	53.1	4	7	270	0.00	29.823 
16:40	62.3	62.3	62.3	73	53.5	3	9	270	0.00	29.823 
16:45	62.0	62.0	62.0	73	53.2	2	7	270	0.00	29.823 
16:50	61.8	61.8	61.8	76	54.1	1	6	270	0.00	29.823 
16:55	61.5	61.5	61.5	77	54.2	4	7	292	0.00	29.823 
17:00	61.6	61.6	61.6	74	53.2	4	10	270	0.00	29.829 
17:05	61.3	61.3	61.3	75	53.3	3	10	270	0.00	29.829 
17:10	60.9	60.9	60.9	77	53.6	5	11	292	0.00	29.829 
17:15	60.9	60.9	60.9	77	53.6	3	7	270	0.00	29.839 
17:20	61.2	61.2	61.2	75	53.2	4	9	270	0.00	29.839 
17:25	61.5	61.5	61.5	73	52.8	3	7	315	0.00	29.839 
17:30	61.2	61.2	61.2	75	53.2	3	10	338	0.00	29.854 
17:35	60.2	60.2	60.2	73	51.5	5	10	315	0.00	29.854 
17:40	59.9	59.9	59.9	74	51.6	4	9	270	0.00	29.854 
17:45	59.8	59.8	59.8	74	51.5	4	8	292	0.00	29.862 
17:50	59.8	59.8	59.8	71	50.4	5	9	292	0.00	29.862 
17:55	59.8	59.8	59.8	70	50.0	4	11	315	0.00	29.862 
18:00	59.6	59.6	59.6	69	49.4	4	12	292	0.00	29.875 
18:05	59.6	59.6	59.6	70	49.8	4	9	315	0.00	29.875 
18:10	59.6	59.6	59.6	71	50.2	3	10	338	0.00	29.875 
18:15	59.6	59.6	59.6	71	50.2	3	6	338	0.00	29.885 
18:20	59.6	59.6	59.6	70	49.8	4	11	292	0.00	29.885 
18:25	59.5	59.5	59.5	71	50.1	4	10	270	0.00	29.885 
18:30	59.3	59.3	59.3	71	49.9	3	7	315	0.00	29.895 
18:35	59.2	59.2	59.2	72	50.2	2	7	270	0.00	29.895 
18:40	59.0	59.0	59.0	72	50.0	5	9	292	0.00	29.895 
18:45	58.7	58.7	58.7	73	50.1	4	10	292	0.00	29.906 
18:50	58.6	58.6	58.6	73	50.0	4	6	315	0.00	29.906 
18:55	58.4	58.4	58.4	74	50.1	3	7	270	0.00	29.906 
19:00	58.3	58.3	58.3	74	50.0	3	6	270	0.00	29.912 
19:05	58.3	58.3	58.3	74	50.0	3	7	292	0.00	29.912 
19:10	58.1	58.1	58.1	75	50.2	2	6	270	0.00	29.912 
19:15	58.1	58.1	58.1	75	50.2	3	7	292	0.00	29.924 
19:20	58.0	58.0	58.0	75	50.1	3	7	292	0.00	29.924 
19:25	58.0	58.0	58.0	75	50.1	2	6	315	0.00	29.924 
19:30	57.8	57.8	57.8	75	49.9	3	7	292	0.00	29.927 
19:35	57.8	57.8	57.8	75	49.9	2	6	270	0.00	29.927 
19:40	57.8	57.8	57.8	75	49.9	2	6	338	0.00	29.927 
19:45	57.8	57.8	57.8	75	49.9	3	7	270	0.00	29.935 
19:50	57.6	57.6	57.6	76	50.1	2	5	270	0.00	29.935 
19:55	57.5	57.5	57.5	76	50.0	2	7	292	0.00	29.935 
20:00	57.5	57.5	57.5	75	49.6	3	5	292	0.00	29.940 
20:05	57.5	57.5	57.5	74	49.3	2	5	292	0.00	29.940 
20:10	57.6	57.6	57.6	74	49.4	2	7	270	0.00	29.940 
20:15	57.6	57.6	57.6	74	49.4	1	4	270	0.00	29.948 
20:20	57.6	57.6	57.6	74	49.4	0	2	270	0.00	29.948 
20:25	57.6	57.6	57.6	74	49.4	1	4	270	0.00	29.948 
20:30	57.6	57.6	57.6	74	49.4	1	5	270	0.00	29.959 
20:35	57.6	57.6	57.6	74	49.4	1	4	270	0.00	29.959 
20:40	57.6	57.6	57.6	75	49.7	0	2	315	0.00	29.959 
20:45	57.6	57.6	57.6	75	49.7	1	4	270	0.00	29.968 
20:50	57.5	57.5	57.5	75	49.6	2	6	270	0.00	29.968 
20:55	57.3	57.3	57.3	75	49.4	1	4	270	0.00	29.968 
21:00	57.2	57.2	57.2	76	49.7	3	7	292	0.00	29.974 
21:05	56.9	56.9	56.9	76	49.4	1	4	292	0.00	29.974 
21:10	56.6	56.6	56.6	77	49.5	2	6	315	0.00	29.974 
21:15	56.5	56.5	56.5	77	49.4	1	4	292	0.00	29.983 
21:20	56.2	56.2	56.2	78	49.4	1	6	315	0.00	29.983 
21:25	56.0	56.0	56.0	78	49.2	2	5	270	0.00	29.983 
21:30	55.7	55.7	55.7	78	48.9	1	4	292	0.00	29.989 
21:35	55.4	55.4	55.4	79	49.0	2	5	292	0.00	29.989 
21:40	55.3	55.3	55.3	79	48.9	2	5	315	0.00	29.989 
21:45	55.0	55.0	55.0	79	48.6	1	4	315	0.00	29.990 
21:50	54.8	54.8	54.8	79	48.4	1	5	292	0.00	29.990 
21:55	54.7	54.7	54.7	79	48.3	1	6	292	0.00	29.990 
22:00	54.7	54.7	54.7	80	48.7	1	3	292	0.00	30.001 
22:05	54.5	54.5	54.5	80	48.5	1	4	315	0.00	30.001 
22:10	54.4	54.4	54.4	80	48.4	0	3	315	0.00	30.001 
22:15	54.2	54.2	54.2	81	48.5	1	4	270	0.00	30.005 
22:20	54.1	54.1	54.1	81	48.4	0	3	270	0.00	30.005 
22:25	53.9	53.9	53.9	81	48.2	1	3	270	0.00	30.005 
22:30	53.8	53.8	53.8	81	48.1	1	3	292	0.00	30.009 
22:35	53.6	53.6	53.6	81	47.9	1	3	292	0.00	30.009 
22:40	53.5	53.5	53.5	81	47.8	1	4	315	0.00	30.009 
22:45	53.3	53.3	53.3	81	47.6	1	5	270	0.00	30.018 
22:50	53.2	53.2	53.2	82	47.8	1	3	270	0.00	30.018 
22:55	53.1	53.1	53.1	82	47.8	0	3	270	0.00	30.018 
23:00	53.1	53.1	53.1	82	47.8	0	2	270	0.00	30.022 
23:05	52.9	52.9	52.9	82	47.6	0	2	270	0.00	30.022 
23:10	52.8	52.8	52.8	82	47.5	0	2	270	0.00	30.022 
23:15	52.6	52.6	52.6	82	47.3	0	2	270	0.00	30.033 
23:20	52.5	52.5	52.5	83	47.5	0	2	270	0.00	30.033 
23:25	52.3	52.3	52.3	83	47.3	0	2	270	0.00	30.033 
23:30	52.3	52.3	52.3	83	47.3	0	2	270	0.00	30.039 
23:35	52.2	52.2	52.2	83	47.2	1	5	315	0.00	30.039 
23:40	52.0	52.0	52.0	82	46.7	1	5	315	0.00	30.039 
23:45	52.0	52.0	52.0	81	46.4	1	3	292	0.00	30.042 
23:50	52.0	52.0	52.0	77	45.0	3	7	315	0.00	30.042 
23:55	52.2	52.2	52.2	77	45.2	1	6	315	0.00	30.042 

CoCoRaHS
IN-AL-39
A2 Web Hosting
Creative Commons License
GoDaddy
search engine by freefind advanced

loaded 2018-11-12 14:43:02 • last modified 2010-11-18 10:43:29
Privacy PolicyDisclaimer
• wx.awcolley.com is powered by PmWiki v.2002016 •
• all content (unless otherwise noted) © 2018 A W Colley